Share

Oconto, NE (68860)

South of Town (KNEBROKE3) Elev 2523 ft | 41.38 °N, 99.64 °W | Change Station

Current weather conditions updated 1 minute ago

Clear
Clear
56.6 °F
Feels Like 56.6 °F
N
17.0
Wind Variable Wind from South
Gusts 17.0 mph
Sunrise 6:53 AM
Sunset 8:22 PM
Moon Waning Gibbous

Today is forecast to be nearly the same temperature as yesterday.

Pressure 29.90 in
Visibility 10.0 miles
Clouds Clear
Dew Point 44 °F
Humidity 62%
Rainfall 0.00 in
Snow Depth Not available.
UV 0 out of 16
Pollen 11.30 out of 12
Air Quality Not available.
Flu Activity Sporadic
METAR KBBW 190453Z AUTO 17018G24KT 10SM CLR 14/06 A2992 RMK AO2 SLP125 T01390061

More Conditions Fewer Conditions

Pressure 29.90 in
Visibility 10.0 miles
Clouds Clear
Dew Point 44 °F
Humidity 62%
Rainfall 0.00 in
Snow Depth Not available.
UV 0 out of 16
Pollen 11.30 out of 12
Air Quality Not available.
Flu Activity Sporadic
METAR KBBW 190453Z AUTO 17018G24KT 10SM CLR 14/06 A2992 RMK AO2 SLP125 T01390061

More Conditions Fewer Conditions

10-Day Weather Forecast

Almanac

Astronomy

Apr. 19, 2014 Rise Set
Actual Time 6:53 AM CDT 8:22 PM CDT
Civil Twilight 6:24 AM CDT 8:51 PM CDT
Nautical Twilight 5:49 AM CDT 9:26 PM CDT
Astronomical Twilight 5:12 AM CDT 10:03 PM CDT
Moon 12:10 AM CDT 10:12 AM CDT
Length of Visible Light 14h 27m
Length of Day
13h 29m
Tomorrow will be 2m 33s longer.
Waning Gibbous, 83% of the Moon is Illuminated
Today
Waning Gibbous
Apr 22
Last Quarter
Apr 29
New
May 6
First Quarter
May 14
Full

Today's Extremes

State Highs State Lows

Community

  • Sunset Silhouettes
    Sunset Silhouettes
  • FL sunset Perico Isle
    FL sunset Perico Isle
  • Cloudy spring view
    Cloudy spring view
  • Old barn
    Old barn
  • What's for Lunch?
    What's for Lunch?

WunderPhotos

Upload Photos

1,702,645 photos uploaded!

WunderBlogs® & News

Nearby

Snow Depth

Station Depth Elevation
No new snow has been reported.

Coastal Water Temperatures

Place Temperature
No Stations Reporting

Earthquake Activity

City Distance Mag. Time & Date
No recent earthquake activity has been reported nearby.
Minimum magnitude displayed is 2.5.

Nearby Weather Stations

Station Location Temp. Dew Point Humidity Wind Precip. Elev Updated Type
South of Town, Broken Bow, NE 56.6 °F 44 °F 62% South  at  17.0 mph 0.00 in / hr 2523 ft 12:10 AM CDT Normal
Ansley, NE 58.2 °F 44 °F 60% SSE  at  4.0 mph 0.00 in / hr 2320 ft 12:00 AM CDT Normal
MesoWest LEXNG1 , Lexington, NE 54 °F - - North  at  - 0.00 in / hr 2411 ft 11:00 PM CDT MADIS

Show More Stations Show Fewer Stations

What do you think?

We're not finished. Please let us know what you like, what you don't like, and what you are still missing.